sensor_id;sensor_type;location;lat;lon;timestamp;P1;durP1;ratioP1;P2;durP2;ratioP2
4504;SDS011;2265;48.794;9.520;2023-11-21T00:00:19;9.50;;;3.40;;
4504;SDS011;2265;48.794;9.520;2023-11-21T00:02:47;11.20;;;4.00;;
4504;SDS011;2265;48.794;9.520;2023-11-21T00:05:14;6.57;;;3.40;;
4504;SDS011;2265;48.794;9.520;2023-11-21T00:07:41;11.87;;;4.30;;
4504;SDS011;2265;48.794;9.520;2023-11-21T00:10:09;9.27;;;4.17;;
4504;SDS011;2265;48.794;9.520;2023-11-21T00:12:39;6.40;;;3.40;;
4504;SDS011;2265;48.794;9.520;2023-11-21T00:15:08;7.60;;;3.40;;
4504;SDS011;2265;48.794;9.520;2023-11-21T00:17:38;5.90;;;3.20;;
4504;SDS011;2265;48.794;9.520;2023-11-21T00:20:06;7.43;;;3.50;;
4504;SDS011;2265;48.794;9.520;2023-11-21T00:22:34;8.63;;;3.70;;
4504;SDS011;2265;48.794;9.520;2023-11-21T00:25:01;8.87;;;3.73;;
4504;SDS011;2265;48.794;9.520;2023-11-21T00:27:29;8.80;;;3.87;;
4504;SDS011;2265;48.794;9.520;2023-11-21T00:29:56;6.00;;;3.77;;
4504;SDS011;2265;48.794;9.520;2023-11-21T00:32:22;6.00;;;3.47;;
4504;SDS011;2265;48.794;9.520;2023-11-21T00:34:51;6.47;;;3.33;;
4504;SDS011;2265;48.794;9.520;2023-11-21T00:37:19;10.10;;;4.47;;
4504;SDS011;2265;48.794;9.520;2023-11-21T00:39:47;8.13;;;3.87;;
4504;SDS011;2265;48.794;9.520;2023-11-21T00:42:14;6.60;;;3.50;;
4504;SDS011;2265;48.794;9.520;2023-11-21T00:44:41;7.03;;;3.33;;
4504;SDS011;2265;48.794;9.520;2023-11-21T00:47:08;4.10;;;2.97;;
4504;SDS011;2265;48.794;9.520;2023-11-21T00:49:35;6.30;;;3.70;;
4504;SDS011;2265;48.794;9.520;2023-11-21T00:52:06;9.57;;;3.20;;
4504;SDS011;2265;48.794;9.520;2023-11-21T00:54:33;8.83;;;2.80;;
4504;SDS011;2265;48.794;9.520;2023-11-21T00:57:01;4.20;;;2.70;;
4504;SDS011;2265;48.794;9.520;2023-11-21T00:59:28;6.57;;;2.43;;
4504;SDS011;2265;48.794;9.520;2023-11-21T01:01:55;4.67;;;2.70;;
4504;SDS011;2265;48.794;9.520;2023-11-21T01:04:25;5.00;;;2.23;;
4504;SDS011;2265;48.794;9.520;2023-11-21T01:06:52;2.67;;;2.10;;
4504;SDS011;2265;48.794;9.520;2023-11-21T01:09:21;5.30;;;2.20;;
4504;SDS011;2265;48.794;9.520;2023-11-21T01:11:49;8.30;;;2.17;;
4504;SDS011;2265;48.794;9.520;2023-11-21T01:14:17;4.40;;;2.20;;
4504;SDS011;2265;48.794;9.520;2023-11-21T01:16:44;3.43;;;2.30;;
4504;SDS011;2265;48.794;9.520;2023-11-21T01:19:11;2.37;;;1.80;;
4504;SDS011;2265;48.794;9.520;2023-11-21T01:21:38;3.57;;;2.40;;
4504;SDS011;2265;48.794;9.520;2023-11-21T01:24:05;4.33;;;1.93;;
4504;SDS011;2265;48.794;9.520;2023-11-21T01:26:34;11.20;;;2.17;;
4504;SDS011;2265;48.794;9.520;2023-11-21T01:29:02;8.67;;;2.33;;
4504;SDS011;2265;48.794;9.520;2023-11-21T01:31:29;4.17;;;2.40;;
4504;SDS011;2265;48.794;9.520;2023-11-21T01:33:56;4.77;;;2.07;;
4504;SDS011;2265;48.794;9.520;2023-11-21T01:36:29;2.87;;;1.87;;
4504;SDS011;2265;48.794;9.520;2023-11-21T01:38:58;4.60;;;2.00;;
4504;SDS011;2265;48.794;9.520;2023-11-21T01:41:26;3.50;;;2.03;;
4504;SDS011;2265;48.794;9.520;2023-11-21T01:43:55;9.17;;;2.33;;
4504;SDS011;2265;48.794;9.520;2023-11-21T01:46:23;2.37;;;1.70;;
4504;SDS011;2265;48.794;9.520;2023-11-21T01:48:50;3.83;;;2.10;;
4504;SDS011;2265;48.794;9.520;2023-11-21T01:51:19;4.30;;;2.10;;
4504;SDS011;2265;48.794;9.520;2023-11-21T01:53:47;3.50;;;2.00;;
4504;SDS011;2265;48.794;9.520;2023-11-21T01:56:15;6.10;;;2.20;;
4504;SDS011;2265;48.794;9.520;2023-11-21T01:58:43;3.73;;;1.70;;
4504;SDS011;2265;48.794;9.520;2023-11-21T02:01:13;5.07;;;2.00;;
4504;SDS011;2265;48.794;9.520;2023-11-21T02:03:40;2.03;;;1.70;;
4504;SDS011;2265;48.794;9.520;2023-11-21T02:06:07;3.30;;;1.73;;
4504;SDS011;2265;48.794;9.520;2023-11-21T02:08:35;3.40;;;1.87;;
4504;SDS011;2265;48.794;9.520;2023-11-21T02:11:03;3.07;;;1.70;;
4504;SDS011;2265;48.794;9.520;2023-11-21T02:13:30;3.97;;;1.70;;
4504;SDS011;2265;48.794;9.520;2023-11-21T02:15:58;7.90;;;1.80;;
4504;SDS011;2265;48.794;9.520;2023-11-21T02:18:27;3.30;;;1.90;;
4504;SDS011;2265;48.794;9.520;2023-11-21T02:20:56;2.60;;;1.97;;
4504;SDS011;2265;48.794;9.520;2023-11-21T02:23:24;5.57;;;2.00;;
4504;SDS011;2265;48.794;9.520;2023-11-21T02:25:53;5.00;;;2.20;;
4504;SDS011;2265;48.794;9.520;2023-11-21T02:28:21;2.70;;;1.60;;
4504;SDS011;2265;48.794;9.520;2023-11-21T02:30:51;10.47;;;2.70;;
4504;SDS011;2265;48.794;9.520;2023-11-21T02:33:20;4.90;;;2.10;;
4504;SDS011;2265;48.794;9.520;2023-11-21T02:35:48;2.73;;;2.10;;
4504;SDS011;2265;48.794;9.520;2023-11-21T02:38:16;2.50;;;1.90;;
4504;SDS011;2265;48.794;9.520;2023-11-21T02:40:45;7.10;;;2.50;;
4504;SDS011;2265;48.794;9.520;2023-11-21T02:43:20;4.80;;;2.13;;
4504;SDS011;2265;48.794;9.520;2023-11-21T02:45:47;5.67;;;2.00;;
4504;SDS011;2265;48.794;9.520;2023-11-21T02:48:14;3.60;;;1.83;;
4504;SDS011;2265;48.794;9.520;2023-11-21T02:50:41;1.80;;;1.73;;
4504;SDS011;2265;48.794;9.520;2023-11-21T02:53:08;1.80;;;1.53;;
4504;SDS011;2265;48.794;9.520;2023-11-21T02:55:36;3.00;;;1.90;;
4504;SDS011;2265;48.794;9.520;2023-11-21T02:58:04;3.43;;;1.73;;
4504;SDS011;2265;48.794;9.520;2023-11-21T03:00:33;2.97;;;1.93;;
4504;SDS011;2265;48.794;9.520;2023-11-21T03:03:01;3.10;;;1.80;;
4504;SDS011;2265;48.794;9.520;2023-11-21T03:05:28;3.10;;;1.90;;
4504;SDS011;2265;48.794;9.520;2023-11-21T03:07:55;2.03;;;1.60;;
4504;SDS011;2265;48.794;9.520;2023-11-21T03:10:22;3.60;;;1.70;;
4504;SDS011;2265;48.794;9.520;2023-11-21T03:12:49;2.67;;;1.77;;
4504;SDS011;2265;48.794;9.520;2023-11-21T03:15:17;2.27;;;1.50;;
4504;SDS011;2265;48.794;9.520;2023-11-21T03:17:45;1.97;;;1.40;;
4504;SDS011;2265;48.794;9.520;2023-11-21T03:20:14;1.90;;;1.57;;
4504;SDS011;2265;48.794;9.520;2023-11-21T03:22:42;1.73;;;1.63;;
4504;SDS011;2265;48.794;9.520;2023-11-21T03:25:09;3.93;;;1.60;;
4504;SDS011;2265;48.794;9.520;2023-11-21T03:27:36;2.17;;;1.73;;
4504;SDS011;2265;48.794;9.520;2023-11-21T03:30:05;2.80;;;1.80;;
4504;SDS011;2265;48.794;9.520;2023-11-21T03:32:36;2.43;;;1.73;;
4504;SDS011;2265;48.794;9.520;2023-11-21T03:35:05;3.00;;;1.77;;
4504;SDS011;2265;48.794;9.520;2023-11-21T03:37:32;1.50;;;1.40;;
4504;SDS011;2265;48.794;9.520;2023-11-21T03:39:59;4.30;;;1.50;;
4504;SDS011;2265;48.794;9.520;2023-11-21T03:42:29;3.23;;;1.77;;
4504;SDS011;2265;48.794;9.520;2023-11-21T03:44:56;2.80;;;1.50;;
4504;SDS011;2265;48.794;9.520;2023-11-21T03:47:23;7.37;;;2.07;;
4504;SDS011;2265;48.794;9.520;2023-11-21T03:49:51;2.13;;;1.80;;
4504;SDS011;2265;48.794;9.520;2023-11-21T03:52:18;4.33;;;2.30;;
4504;SDS011;2265;48.794;9.520;2023-11-21T03:54:45;2.97;;;1.70;;
4504;SDS011;2265;48.794;9.520;2023-11-21T03:57:12;2.60;;;1.90;;
4504;SDS011;2265;48.794;9.520;2023-11-21T03:59:40;2.60;;;1.93;;
4504;SDS011;2265;48.794;9.520;2023-11-21T04:02:07;2.20;;;1.90;;
4504;SDS011;2265;48.794;9.520;2023-11-21T04:04:34;1.87;;;1.80;;
4504;SDS011;2265;48.794;9.520;2023-11-21T04:07:03;3.03;;;1.97;;
4504;SDS011;2265;48.794;9.520;2023-11-21T04:09:30;3.93;;;1.70;;
4504;SDS011;2265;48.794;9.520;2023-11-21T04:11:57;3.50;;;1.60;;
4504;SDS011;2265;48.794;9.520;2023-11-21T04:14:24;1.80;;;1.60;;
4504;SDS011;2265;48.794;9.520;2023-11-21T04:16:52;3.23;;;1.77;;
4504;SDS011;2265;48.794;9.520;2023-11-21T04:19:19;2.43;;;1.70;;
4504;SDS011;2265;48.794;9.520;2023-11-21T04:21:46;1.90;;;1.53;;
4504;SDS011;2265;48.794;9.520;2023-11-21T04:24:15;2.90;;;2.23;;
4504;SDS011;2265;48.794;9.520;2023-11-21T04:26:43;3.77;;;2.00;;
4504;SDS011;2265;48.794;9.520;2023-11-21T04:29:10;3.00;;;1.77;;
4504;SDS011;2265;48.794;9.520;2023-11-21T04:31:37;3.00;;;2.00;;
4504;SDS011;2265;48.794;9.520;2023-11-21T04:34:04;4.60;;;1.87;;
4504;SDS011;2265;48.794;9.520;2023-11-21T04:36:31;3.77;;;1.60;;
4504;SDS011;2265;48.794;9.520;2023-11-21T04:38:59;2.63;;;1.80;;
4504;SDS011;2265;48.794;9.520;2023-11-21T04:41:29;2.80;;;1.70;;
4504;SDS011;2265;48.794;9.520;2023-11-21T04:43:56;2.30;;;1.90;;
4504;SDS011;2265;48.794;9.520;2023-11-21T04:46:23;3.10;;;1.73;;
4504;SDS011;2265;48.794;9.520;2023-11-21T04:48:51;4.07;;;1.70;;
4504;SDS011;2265;48.794;9.520;2023-11-21T04:51:18;3.30;;;1.63;;
4504;SDS011;2265;48.794;9.520;2023-11-21T04:53:45;2.17;;;1.80;;
4504;SDS011;2265;48.794;9.520;2023-11-21T04:56:13;3.00;;;1.80;;
4504;SDS011;2265;48.794;9.520;2023-11-21T04:58:42;2.20;;;1.53;;
4504;SDS011;2265;48.794;9.520;2023-11-21T05:01:09;2.67;;;1.77;;
4504;SDS011;2265;48.794;9.520;2023-11-21T05:03:39;1.60;;;1.50;;
4504;SDS011;2265;48.794;9.520;2023-11-21T05:06:06;2.90;;;1.60;;
4504;SDS011;2265;48.794;9.520;2023-11-21T05:08:35;2.37;;;1.70;;
4504;SDS011;2265;48.794;9.520;2023-11-21T05:11:03;4.00;;;1.67;;
4504;SDS011;2265;48.794;9.520;2023-11-21T05:13:33;2.10;;;1.60;;
4504;SDS011;2265;48.794;9.520;2023-11-21T05:16:09;3.17;;;1.80;;
4504;SDS011;2265;48.794;9.520;2023-11-21T05:18:36;2.67;;;1.50;;
4504;SDS011;2265;48.794;9.520;2023-11-21T05:21:03;3.43;;;1.67;;
4504;SDS011;2265;48.794;9.520;2023-11-21T05:23:31;2.37;;;1.77;;
4504;SDS011;2265;48.794;9.520;2023-11-21T05:25:59;2.23;;;1.60;;
4504;SDS011;2265;48.794;9.520;2023-11-21T05:28:26;2.07;;;1.70;;
4504;SDS011;2265;48.794;9.520;2023-11-21T05:30:54;2.47;;;1.70;;
4504;SDS011;2265;48.794;9.520;2023-11-21T05:33:23;1.93;;;1.60;;
4504;SDS011;2265;48.794;9.520;2023-11-21T05:35:50;1.90;;;1.67;;
4504;SDS011;2265;48.794;9.520;2023-11-21T05:38:26;2.33;;;1.77;;
4504;SDS011;2265;48.794;9.520;2023-11-21T05:40:54;2.30;;;1.80;;
4504;SDS011;2265;48.794;9.520;2023-11-21T05:43:23;3.00;;;1.80;;
4504;SDS011;2265;48.794;9.520;2023-11-21T05:45:50;1.50;;;1.50;;
4504;SDS011;2265;48.794;9.520;2023-11-21T05:48:17;2.10;;;1.53;;
4504;SDS011;2265;48.794;9.520;2023-11-21T05:50:47;2.53;;;1.90;;
4504;SDS011;2265;48.794;9.520;2023-11-21T05:53:14;3.13;;;1.90;;
4504;SDS011;2265;48.794;9.520;2023-11-21T05:55:42;2.73;;;1.60;;
4504;SDS011;2265;48.794;9.520;2023-11-21T05:58:09;4.70;;;2.00;;
4504;SDS011;2265;48.794;9.520;2023-11-21T06:00:37;3.40;;;1.97;;
4504;SDS011;2265;48.794;9.520;2023-11-21T06:03:04;2.80;;;1.67;;
4504;SDS011;2265;48.794;9.520;2023-11-21T06:05:32;2.70;;;1.63;;
4504;SDS011;2265;48.794;9.520;2023-11-21T06:08:01;3.63;;;2.00;;
4504;SDS011;2265;48.794;9.520;2023-11-21T06:10:28;3.20;;;2.10;;
4504;SDS011;2265;48.794;9.520;2023-11-21T06:12:55;3.87;;;1.90;;
4504;SDS011;2265;48.794;9.520;2023-11-21T06:15:22;6.47;;;2.00;;
4504;SDS011;2265;48.794;9.520;2023-11-21T06:17:50;2.80;;;2.00;;
4504;SDS011;2265;48.794;9.520;2023-11-21T06:20:18;1.80;;;1.60;;
4504;SDS011;2265;48.794;9.520;2023-11-21T06:22:46;2.63;;;1.70;;
4504;SDS011;2265;48.794;9.520;2023-11-21T06:25:16;1.80;;;1.63;;
4504;SDS011;2265;48.794;9.520;2023-11-21T06:27:44;2.90;;;1.80;;
4504;SDS011;2265;48.794;9.520;2023-11-21T06:30:13;3.30;;;1.63;;
4504;SDS011;2265;48.794;9.520;2023-11-21T06:32:41;2.23;;;1.50;;
4504;SDS011;2265;48.794;9.520;2023-11-21T06:35:12;2.80;;;1.80;;
4504;SDS011;2265;48.794;9.520;2023-11-21T06:37:40;1.80;;;1.50;;
4504;SDS011;2265;48.794;9.520;2023-11-21T06:40:13;2.23;;;1.77;;
4504;SDS011;2265;48.794;9.520;2023-11-21T06:42:42;2.47;;;1.70;;
4504;SDS011;2265;48.794;9.520;2023-11-21T06:45:10;1.80;;;1.60;;
4504;SDS011;2265;48.794;9.520;2023-11-21T06:47:38;2.20;;;1.60;;
4504;SDS011;2265;48.794;9.520;2023-11-21T06:50:06;1.83;;;1.47;;
4504;SDS011;2265;48.794;9.520;2023-11-21T06:52:33;1.73;;;1.53;;
4504;SDS011;2265;48.794;9.520;2023-11-21T06:55:00;2.90;;;1.90;;
4504;SDS011;2265;48.794;9.520;2023-11-21T06:57:28;2.47;;;1.93;;
4504;SDS011;2265;48.794;9.520;2023-11-21T06:59:57;11.73;;;3.50;;
4504;SDS011;2265;48.794;9.520;2023-11-21T07:02:24;4.13;;;2.20;;
4504;SDS011;2265;48.794;9.520;2023-11-21T07:04:53;2.53;;;1.90;;
4504;SDS011;2265;48.794;9.520;2023-11-21T07:07:20;4.40;;;2.00;;
4504;SDS011;2265;48.794;9.520;2023-11-21T07:09:47;3.07;;;1.90;;
4504;SDS011;2265;48.794;9.520;2023-11-21T07:12:14;6.37;;;2.10;;
4504;SDS011;2265;48.794;9.520;2023-11-21T07:14:48;4.43;;;1.87;;
4504;SDS011;2265;48.794;9.520;2023-11-21T07:17:17;3.50;;;2.10;;
4504;SDS011;2265;48.794;9.520;2023-11-21T07:19:44;3.70;;;2.00;;
4504;SDS011;2265;48.794;9.520;2023-11-21T07:22:11;7.37;;;3.37;;
4504;SDS011;2265;48.794;9.520;2023-11-21T07:24:39;5.87;;;2.80;;
4504;SDS011;2265;48.794;9.520;2023-11-21T07:27:06;7.53;;;2.30;;
4504;SDS011;2265;48.794;9.520;2023-11-21T07:29:33;5.30;;;2.30;;
4504;SDS011;2265;48.794;9.520;2023-11-21T07:32:00;4.40;;;1.97;;
4504;SDS011;2265;48.794;9.520;2023-11-21T07:34:28;3.73;;;2.10;;
4504;SDS011;2265;48.794;9.520;2023-11-21T07:36:56;3.23;;;1.80;;
4504;SDS011;2265;48.794;9.520;2023-11-21T07:39:23;2.43;;;1.80;;
4504;SDS011;2265;48.794;9.520;2023-11-21T07:41:50;5.47;;;2.10;;
4504;SDS011;2265;48.794;9.520;2023-11-21T07:44:17;8.60;;;3.80;;
4504;SDS011;2265;48.794;9.520;2023-11-21T07:46:45;4.17;;;2.60;;
4504;SDS011;2265;48.794;9.520;2023-11-21T07:49:12;4.80;;;1.93;;
4504;SDS011;2265;48.794;9.520;2023-11-21T07:51:43;5.33;;;2.97;;
4504;SDS011;2265;48.794;9.520;2023-11-21T07:54:10;7.90;;;3.90;;
4504;SDS011;2265;48.794;9.520;2023-11-21T07:56:37;7.10;;;3.40;;
4504;SDS011;2265;48.794;9.520;2023-11-21T07:59:04;9.80;;;3.43;;
4504;SDS011;2265;48.794;9.520;2023-11-21T08:01:31;4.60;;;2.70;;
4504;SDS011;2265;48.794;9.520;2023-11-21T08:03:58;3.90;;;2.60;;
4504;SDS011;2265;48.794;9.520;2023-11-21T08:06:28;9.97;;;3.63;;
4504;SDS011;2265;48.794;9.520;2023-11-21T08:08:57;10.03;;;3.70;;
4504;SDS011;2265;48.794;9.520;2023-11-21T08:11:33;7.63;;;3.10;;
4504;SDS011;2265;48.794;9.520;2023-11-21T08:14:00;7.73;;;3.10;;
4504;SDS011;2265;48.794;9.520;2023-11-21T08:16:27;6.17;;;3.27;;
4504;SDS011;2265;48.794;9.520;2023-11-21T08:18:54;10.50;;;2.60;;
4504;SDS011;2265;48.794;9.520;2023-11-21T08:21:21;5.03;;;2.90;;
4504;SDS011;2265;48.794;9.520;2023-11-21T08:23:50;5.20;;;3.00;;
4504;SDS011;2265;48.794;9.520;2023-11-21T08:26:21;4.53;;;2.90;;
4504;SDS011;2265;48.794;9.520;2023-11-21T08:28:49;6.90;;;3.13;;
4504;SDS011;2265;48.794;9.520;2023-11-21T08:31:22;4.57;;;2.80;;
4504;SDS011;2265;48.794;9.520;2023-11-21T08:33:50;6.27;;;3.00;;
4504;SDS011;2265;48.794;9.520;2023-11-21T08:36:18;4.47;;;2.60;;
4504;SDS011;2265;48.794;9.520;2023-11-21T08:38:46;5.33;;;2.90;;
4504;SDS011;2265;48.794;9.520;2023-11-21T08:41:14;5.77;;;2.93;;
4504;SDS011;2265;48.794;9.520;2023-11-21T08:43:42;4.30;;;2.40;;
4504;SDS011;2265;48.794;9.520;2023-11-21T08:46:10;4.10;;;2.33;;
4504;SDS011;2265;48.794;9.520;2023-11-21T08:48:38;3.03;;;2.00;;
4504;SDS011;2265;48.794;9.520;2023-11-21T08:51:05;3.90;;;2.17;;
4504;SDS011;2265;48.794;9.520;2023-11-21T08:53:32;2.90;;;2.10;;
4504;SDS011;2265;48.794;9.520;2023-11-21T08:56:00;2.87;;;1.93;;
4504;SDS011;2265;48.794;9.520;2023-11-21T08:58:29;6.10;;;2.20;;
4504;SDS011;2265;48.794;9.520;2023-11-21T09:00:59;4.30;;;2.03;;
4504;SDS011;2265;48.794;9.520;2023-11-21T09:03:26;3.47;;;2.17;;
4504;SDS011;2265;48.794;9.520;2023-11-21T09:05:53;2.83;;;2.00;;
4504;SDS011;2265;48.794;9.520;2023-11-21T09:08:21;2.43;;;1.80;;
4504;SDS011;2265;48.794;9.520;2023-11-21T09:10:48;2.53;;;1.80;;
4504;SDS011;2265;48.794;9.520;2023-11-21T09:13:15;2.67;;;1.80;;
4504;SDS011;2265;48.794;9.520;2023-11-21T09:15:42;2.10;;;1.70;;
4504;SDS011;2265;48.794;9.520;2023-11-21T09:18:13;1.70;;;1.53;;
4504;SDS011;2265;48.794;9.520;2023-11-21T09:20:40;3.97;;;2.13;;
4504;SDS011;2265;48.794;9.520;2023-11-21T09:23:09;2.90;;;1.80;;
4504;SDS011;2265;48.794;9.520;2023-11-21T09:25:38;3.83;;;2.27;;
4504;SDS011;2265;48.794;9.520;2023-11-21T09:28:05;2.30;;;1.90;;
4504;SDS011;2265;48.794;9.520;2023-11-21T09:30:33;4.53;;;2.00;;
4504;SDS011;2265;48.794;9.520;2023-11-21T09:33:00;2.97;;;2.07;;
4504;SDS011;2265;48.794;9.520;2023-11-21T09:35:29;4.10;;;1.87;;
4504;SDS011;2265;48.794;9.520;2023-11-21T09:37:56;2.60;;;2.10;;
4504;SDS011;2265;48.794;9.520;2023-11-21T09:40:23;3.53;;;1.73;;
4504;SDS011;2265;48.794;9.520;2023-11-21T09:42:53;2.73;;;1.80;;
4504;SDS011;2265;48.794;9.520;2023-11-21T09:45:25;2.07;;;1.70;;
4504;SDS011;2265;48.794;9.520;2023-11-21T09:47:53;2.43;;;1.70;;
4504;SDS011;2265;48.794;9.520;2023-11-21T09:50:22;3.50;;;2.00;;
4504;SDS011;2265;48.794;9.520;2023-11-21T09:52:55;4.07;;;1.90;;
4504;SDS011;2265;48.794;9.520;2023-11-21T09:55:27;2.27;;;1.90;;
4504;SDS011;2265;48.794;9.520;2023-11-21T09:57:56;3.10;;;1.70;;
4504;SDS011;2265;48.794;9.520;2023-11-21T10:00:26;5.63;;;1.70;;
4504;SDS011;2265;48.794;9.520;2023-11-21T10:02:53;2.47;;;1.60;;
4504;SDS011;2265;48.794;9.520;2023-11-21T10:05:22;1.80;;;1.50;;
4504;SDS011;2265;48.794;9.520;2023-11-21T10:07:49;1.57;;;1.53;;
4504;SDS011;2265;48.794;9.520;2023-11-21T10:10:20;1.80;;;1.40;;
4504;SDS011;2265;48.794;9.520;2023-11-21T10:12:50;1.77;;;1.30;;
4504;SDS011;2265;48.794;9.520;2023-11-21T10:15:21;1.50;;;1.40;;
4504;SDS011;2265;48.794;9.520;2023-11-21T10:17:50;2.13;;;1.50;;
4504;SDS011;2265;48.794;9.520;2023-11-21T10:20:19;2.50;;;1.40;;
4504;SDS011;2265;48.794;9.520;2023-11-21T10:22:47;2.53;;;1.40;;
4504;SDS011;2265;48.794;9.520;2023-11-21T10:25:14;4.43;;;1.50;;
4504;SDS011;2265;48.794;9.520;2023-11-21T10:27:46;1.80;;;1.40;;
4504;SDS011;2265;48.794;9.520;2023-11-21T10:30:16;1.47;;;1.30;;
4504;SDS011;2265;48.794;9.520;2023-11-21T10:32:43;1.30;;;1.20;;
4504;SDS011;2265;48.794;9.520;2023-11-21T10:35:10;1.70;;;1.30;;
4504;SDS011;2265;48.794;9.520;2023-11-21T10:37:38;1.50;;;1.30;;
4504;SDS011;2265;48.794;9.520;2023-11-21T10:40:06;2.00;;;1.60;;
4504;SDS011;2265;48.794;9.520;2023-11-21T10:42:37;1.83;;;1.47;;
4504;SDS011;2265;48.794;9.520;2023-11-21T10:45:06;1.67;;;1.40;;
4504;SDS011;2265;48.794;9.520;2023-11-21T10:47:38;3.13;;;1.67;;
4504;SDS011;2265;48.794;9.520;2023-11-21T10:50:07;1.60;;;1.40;;
4504;SDS011;2265;48.794;9.520;2023-11-21T10:52:36;2.87;;;1.70;;
4504;SDS011;2265;48.794;9.520;2023-11-21T10:55:13;2.43;;;1.50;;
4504;SDS011;2265;48.794;9.520;2023-11-21T10:57:43;1.93;;;1.60;;
4504;SDS011;2265;48.794;9.520;2023-11-21T11:00:15;2.70;;;1.53;;
4504;SDS011;2265;48.794;9.520;2023-11-21T11:02:45;1.63;;;1.47;;
4504;SDS011;2265;48.794;9.520;2023-11-21T11:05:16;2.20;;;1.50;;
4504;SDS011;2265;48.794;9.520;2023-11-21T11:07:47;1.50;;;1.30;;
4504;SDS011;2265;48.794;9.520;2023-11-21T11:10:17;2.30;;;1.53;;
4504;SDS011;2265;48.794;9.520;2023-11-21T11:12:48;1.70;;;1.50;;
4504;SDS011;2265;48.794;9.520;2023-11-21T11:15:18;2.40;;;1.57;;
4504;SDS011;2265;48.794;9.520;2023-11-21T11:17:46;1.60;;;1.30;;
4504;SDS011;2265;48.794;9.520;2023-11-21T11:20:14;3.13;;;1.43;;
4504;SDS011;2265;48.794;9.520;2023-11-21T11:22:48;2.37;;;1.53;;
4504;SDS011;2265;48.794;9.520;2023-11-21T11:25:32;3.00;;;2.00;;
4504;SDS011;2265;48.794;9.520;2023-11-21T11:28:17;2.20;;;1.67;;
4504;SDS011;2265;48.794;9.520;2023-11-21T11:30:53;3.10;;;1.83;;
4504;SDS011;2265;48.794;9.520;2023-11-21T11:33:31;3.30;;;1.80;;
4504;SDS011;2265;48.794;9.520;2023-11-21T11:36:06;2.67;;;1.90;;
4504;SDS011;2265;48.794;9.520;2023-11-21T11:38:39;5.00;;;2.90;;
4504;SDS011;2265;48.794;9.520;2023-11-21T11:41:19;2.30;;;1.97;;
4504;SDS011;2265;48.794;9.520;2023-11-21T11:43:52;2.70;;;2.20;;
4504;SDS011;2265;48.794;9.520;2023-11-21T11:46:22;2.93;;;2.20;;
4504;SDS011;2265;48.794;9.520;2023-11-21T11:49:08;4.33;;;2.27;;
4504;SDS011;2265;48.794;9.520;2023-11-21T11:51:36;3.07;;;2.00;;
4504;SDS011;2265;48.794;9.520;2023-11-21T11:54:03;3.40;;;1.90;;
4504;SDS011;2265;48.794;9.520;2023-11-21T11:56:33;3.00;;;2.30;;
4504;SDS011;2265;48.794;9.520;2023-11-21T11:59:03;4.70;;;2.40;;
4504;SDS011;2265;48.794;9.520;2023-11-21T12:01:33;3.77;;;2.03;;
4504;SDS011;2265;48.794;9.520;2023-11-21T12:06:57;3.03;;;1.80;;
4504;SDS011;2265;48.794;9.520;2023-11-21T12:09:28;3.10;;;2.30;;
4504;SDS011;2265;48.794;9.520;2023-11-21T12:11:56;5.00;;;2.20;;
4504;SDS011;2265;48.794;9.520;2023-11-21T12:14:24;4.50;;;2.90;;
4504;SDS011;2265;48.794;9.520;2023-11-21T12:16:52;3.80;;;2.43;;
4504;SDS011;2265;48.794;9.520;2023-11-21T12:19:21;5.57;;;2.70;;
4504;SDS011;2265;48.794;9.520;2023-11-21T12:21:49;1.87;;;1.70;;
4504;SDS011;2265;48.794;9.520;2023-11-21T12:24:17;3.00;;;1.73;;
4504;SDS011;2265;48.794;9.520;2023-11-21T12:26:45;1.97;;;1.60;;
4504;SDS011;2265;48.794;9.520;2023-11-21T12:29:13;5.60;;;1.80;;
4504;SDS011;2265;48.794;9.520;2023-11-21T12:31:42;4.07;;;1.80;;
4504;SDS011;2265;48.794;9.520;2023-11-21T12:34:11;2.97;;;1.90;;
4504;SDS011;2265;48.794;9.520;2023-11-21T12:36:38;2.47;;;1.83;;
4504;SDS011;2265;48.794;9.520;2023-11-21T12:39:05;2.80;;;1.73;;
4504;SDS011;2265;48.794;9.520;2023-11-21T12:41:34;3.57;;;2.00;;
4504;SDS011;2265;48.794;9.520;2023-11-21T12:44:01;2.60;;;1.70;;
4504;SDS011;2265;48.794;9.520;2023-11-21T12:46:28;2.43;;;1.50;;
4504;SDS011;2265;48.794;9.520;2023-11-21T12:48:59;3.10;;;2.00;;
4504;SDS011;2265;48.794;9.520;2023-11-21T12:51:27;2.20;;;1.73;;
4504;SDS011;2265;48.794;9.520;2023-11-21T12:53:55;3.30;;;1.67;;
4504;SDS011;2265;48.794;9.520;2023-11-21T12:56:23;2.73;;;1.90;;
4504;SDS011;2265;48.794;9.520;2023-11-21T12:58:53;2.43;;;1.63;;
4504;SDS011;2265;48.794;9.520;2023-11-21T13:01:25;2.53;;;1.67;;
4504;SDS011;2265;48.794;9.520;2023-11-21T13:03:53;2.17;;;1.80;;
4504;SDS011;2265;48.794;9.520;2023-11-21T13:06:20;2.10;;;1.80;;
4504;SDS011;2265;48.794;9.520;2023-11-21T13:08:51;6.67;;;2.10;;
4504;SDS011;2265;48.794;9.520;2023-11-21T13:11:22;3.73;;;2.30;;
4504;SDS011;2265;48.794;9.520;2023-11-21T13:13:51;2.90;;;1.90;;
4504;SDS011;2265;48.794;9.520;2023-11-21T13:16:19;2.60;;;1.93;;
4504;SDS011;2265;48.794;9.520;2023-11-21T13:18:46;2.30;;;1.90;;
4504;SDS011;2265;48.794;9.520;2023-11-21T13:21:16;4.50;;;2.40;;
4504;SDS011;2265;48.794;9.520;2023-11-21T13:23:43;3.70;;;2.40;;
4504;SDS011;2265;48.794;9.520;2023-11-21T13:26:15;2.53;;;2.07;;
4504;SDS011;2265;48.794;9.520;2023-11-21T13:28:42;2.77;;;2.10;;
4504;SDS011;2265;48.794;9.520;2023-11-21T13:31:11;3.40;;;2.50;;
4504;SDS011;2265;48.794;9.520;2023-11-21T13:33:51;4.10;;;2.60;;
4504;SDS011;2265;48.794;9.520;2023-11-21T13:36:21;4.03;;;2.50;;
4504;SDS011;2265;48.794;9.520;2023-11-21T13:38:49;3.10;;;2.10;;
4504;SDS011;2265;48.794;9.520;2023-11-21T13:41:19;3.30;;;2.17;;
4504;SDS011;2265;48.794;9.520;2023-11-21T13:43:53;2.97;;;1.90;;
4504;SDS011;2265;48.794;9.520;2023-11-21T13:46:28;2.60;;;2.00;;
4504;SDS011;2265;48.794;9.520;2023-11-21T13:49:00;3.30;;;1.90;;
4504;SDS011;2265;48.794;9.520;2023-11-21T13:51:27;2.50;;;1.90;;
4504;SDS011;2265;48.794;9.520;2023-11-21T13:54:04;2.33;;;2.00;;
4504;SDS011;2265;48.794;9.520;2023-11-21T13:56:38;2.37;;;1.90;;
4504;SDS011;2265;48.794;9.520;2023-11-21T13:59:06;4.53;;;2.00;;
4504;SDS011;2265;48.794;9.520;2023-11-21T14:01:43;2.97;;;2.03;;
4504;SDS011;2265;48.794;9.520;2023-11-21T14:04:24;3.53;;;2.40;;
4504;SDS011;2265;48.794;9.520;2023-11-21T14:07:13;5.83;;;1.90;;
4504;SDS011;2265;48.794;9.520;2023-11-21T14:09:52;2.53;;;1.70;;
4504;SDS011;2265;48.794;9.520;2023-11-21T14:12:23;3.40;;;2.00;;
4504;SDS011;2265;48.794;9.520;2023-11-21T14:14:50;2.20;;;1.97;;
4504;SDS011;2265;48.794;9.520;2023-11-21T14:17:17;1.87;;;1.57;;
4504;SDS011;2265;48.794;9.520;2023-11-21T14:19:47;2.60;;;2.00;;
4504;SDS011;2265;48.794;9.520;2023-11-21T14:22:15;3.70;;;2.40;;
4504;SDS011;2265;48.794;9.520;2023-11-21T14:24:42;3.73;;;2.43;;
4504;SDS011;2265;48.794;9.520;2023-11-21T14:27:12;2.73;;;2.20;;
4504;SDS011;2265;48.794;9.520;2023-11-21T14:29:41;3.60;;;2.30;;
4504;SDS011;2265;48.794;9.520;2023-11-21T14:32:09;6.17;;;3.17;;
4504;SDS011;2265;48.794;9.520;2023-11-21T14:34:37;10.53;;;3.60;;
4504;SDS011;2265;48.794;9.520;2023-11-21T14:37:06;6.43;;;3.33;;
4504;SDS011;2265;48.794;9.520;2023-11-21T14:39:33;6.90;;;3.00;;
4504;SDS011;2265;48.794;9.520;2023-11-21T14:42:05;2.87;;;1.80;;
4504;SDS011;2265;48.794;9.520;2023-11-21T14:44:33;3.87;;;2.53;;
4504;SDS011;2265;48.794;9.520;2023-11-21T14:47:08;7.33;;;3.90;;
4504;SDS011;2265;48.794;9.520;2023-11-21T14:49:40;8.10;;;3.80;;
4504;SDS011;2265;48.794;9.520;2023-11-21T14:52:17;8.23;;;3.73;;
4504;SDS011;2265;48.794;9.520;2023-11-21T14:54:57;5.00;;;2.63;;
4504;SDS011;2265;48.794;9.520;2023-11-21T14:57:39;4.97;;;2.83;;
4504;SDS011;2265;48.794;9.520;2023-11-21T15:00:08;3.63;;;2.23;;
4504;SDS011;2265;48.794;9.520;2023-11-21T15:02:57;3.77;;;2.30;;
4504;SDS011;2265;48.794;9.520;2023-11-21T15:05:24;3.83;;;2.20;;
4504;SDS011;2265;48.794;9.520;2023-11-21T15:07:54;3.77;;;2.30;;
4504;SDS011;2265;48.794;9.520;2023-11-21T15:10:22;2.43;;;1.97;;
4504;SDS011;2265;48.794;9.520;2023-11-21T15:12:57;2.40;;;1.83;;
4504;SDS011;2265;48.794;9.520;2023-11-21T15:15:25;2.50;;;1.70;;
4504;SDS011;2265;48.794;9.520;2023-11-21T15:17:56;2.00;;;1.60;;
4504;SDS011;2265;48.794;9.520;2023-11-21T15:20:24;3.57;;;2.20;;
4504;SDS011;2265;48.794;9.520;2023-11-21T15:22:52;2.23;;;1.70;;
4504;SDS011;2265;48.794;9.520;2023-11-21T15:25:19;2.10;;;1.80;;
4504;SDS011;2265;48.794;9.520;2023-11-21T15:27:46;4.30;;;2.10;;